Time;durP1;ratioP1;P1;durP2;ratioP2;P2;SDS_P1;SDS_P2;PMS_P1;PMS_P2;Temp;Humidity;BMP_temperature;BMP_pressure;BME280_temperature;BME280_humidity;BME280_pressure;Samples;Min_cycle;Max_cycle;Signal;HPM_P1;HPM_P2
2023/12/19 00:00:19;;;;;;;73.13;24.40;;;7.20;99.90;;;;;;4881202;29;20599;-86
2023/12/19 00:03:00;;;;;;;70.50;24.47;;;6.00;99.90;;;;;;4879944;29;20052;-86
2023/12/19 00:05:26;;;;;;;67.70;24.17;;;7.60;99.90;;;;;;4880257;29;20124;-86
2023/12/19 00:07:52;;;;;;;73.23;24.53;;;5.60;99.90;;;;;;4880099;29;20127;-86
2023/12/19 00:10:17;;;;;;;62.87;23.73;;;7.00;99.90;;;;;;4879580;29;20045;-86
2023/12/19 00:12:43;;;;;;;62.47;22.17;;;5.50;99.90;;;;;;4882252;29;20060;-86
2023/12/19 00:15:24;;;;;;;61.13;23.40;;;5.50;99.90;;;;;;4883807;29;20469;-86
2023/12/19 00:17:49;;;;;;;65.47;23.90;;;5.30;99.90;;;;;;4882928;29;20085;-85
2023/12/19 00:20:25;;;;;;;59.60;21.87;;;5.80;99.90;;;;;;4883096;29;20162;-85
2023/12/19 00:22:57;;;;;;;68.10;22.10;;;5.30;99.90;;;;;;4883680;29;20052;-85
2023/12/19 00:25:23;;;;;;;62.17;23.17;;;6.20;99.90;;;;;;4882921;29;20040;-84
2023/12/19 00:27:49;;;;;;;61.70;22.00;;;5.50;99.90;;;;;;4883083;29;20063;-85
2023/12/19 00:30:27;;;;;;;57.63;21.13;;;5.60;99.90;;;;;;4882657;29;20144;-84
2023/12/19 00:32:52;;;;;;;53.30;20.87;;;6.00;99.90;;;;;;4883250;29;20497;-84
2023/12/19 00:35:34;;;;;;;55.23;21.43;;;7.00;99.90;;;;;;4883499;29;20169;-84
2023/12/19 00:38:04;;;;;;;50.77;20.53;;;5.00;99.90;;;;;;4882414;29;20052;-84
2023/12/19 00:40:44;;;;;;;49.73;19.53;;;5.70;99.90;;;;;;4901782;29;20052;-84
2023/12/19 00:43:10;;;;;;;52.20;21.83;;;6.60;99.90;;;;;;4902034;29;20045;-84
2023/12/19 00:45:36;;;;;;;58.07;20.77;;;7.30;99.90;;;;;;4901239;29;20051;-84
2023/12/19 00:48:04;;;;;;;50.43;20.03;;;6.00;99.90;;;;;;4901616;29;20472;-83
2023/12/19 00:50:29;;;;;;;49.07;20.17;;;5.70;99.90;;;;;;4901931;29;20130;-84
2023/12/19 00:52:55;;;;;;;56.73;20.50;;;5.70;99.90;;;;;;4900884;29;20155;-84
2023/12/19 00:55:21;;;;;;;50.30;19.83;;;5.70;99.90;;;;;;4917365;29;20048;-84
2023/12/19 00:57:46;;;;;;;57.50;20.00;;;5.70;99.90;;;;;;4902010;29;20404;-84
2023/12/19 01:00:24;;;;;;;55.93;20.97;;;6.00;99.90;;;;;;4900585;29;20103;-84
2023/12/19 01:02:50;;;;;;;48.93;19.87;;;7.30;99.90;;;;;;4901657;29;20055;-85
2023/12/19 01:05:34;;;;;;;52.67;20.40;;;5.90;99.90;;;;;;4901401;29;20408;-84
2023/12/19 01:07:59;;;;;;;60.25;20.48;;;5.50;99.90;;;;;;4901381;29;20058;-84
2023/12/19 01:10:37;;;;;;;51.43;20.20;;;6.20;99.90;;;;;;4901495;29;20143;-84
2023/12/19 01:13:03;;;;;;;50.37;19.97;;;7.60;99.90;;;;;;4900413;29;20050;-84
2023/12/19 01:15:35;;;;;;;63.50;20.90;;;7.10;99.90;;;;;;4901565;29;20052;-84
2023/12/19 01:18:00;;;;;;;49.87;19.23;;;5.90;99.90;;;;;;4901428;29;20048;-84
2023/12/19 01:20:27;;;;;;;51.27;19.67;;;6.70;99.90;;;;;;4900513;29;20054;-84
2023/12/19 01:22:52;;;;;;;47.90;19.23;;;5.90;99.90;;;;;;4916598;29;20079;-84
2023/12/19 01:25:31;;;;;;;45.73;18.30;;;5.90;99.90;;;;;;4900553;29;20547;-84
2023/12/19 01:27:56;;;;;;;45.17;18.10;;;5.50;99.90;;;;;;4897267;29;20115;-84
2023/12/19 01:30:34;;;;;;;43.30;17.90;;;5.50;99.90;;;;;;4898163;29;20497;-84
2023/12/19 01:33:00;;;;;;;46.70;18.20;;;5.60;99.90;;;;;;4898014;29;20108;-85
2023/12/19 01:35:25;;;;;;;47.97;18.20;;;7.00;99.90;;;;;;4897358;29;20053;-85
2023/12/19 01:37:54;;;;;;;48.60;17.77;;;6.60;99.90;;;;;;4897696;29;20461;-85
2023/12/19 01:40:31;;;;;;;51.87;18.27;;;5.60;99.90;;;;;;4897990;29;20044;-84
2023/12/19 01:42:58;;;;;;;48.80;18.87;;;6.30;99.90;;;;;;4896801;29;20064;-84
2023/12/19 01:45:25;;;;;;;44.07;17.17;;;5.90;99.90;;;;;;4897669;29;20088;-84
2023/12/19 01:48:06;;;;;;;42.67;16.90;;;5.70;99.90;;;;;;4896961;29;20096;-84
2023/12/19 01:50:32;;;;;;;40.33;16.90;;;6.80;99.90;;;;;;4897637;29;20135;-84
2023/12/19 01:52:59;;;;;;;47.73;18.83;;;6.20;99.90;;;;;;4897543;29;20080;-85
2023/12/19 01:55:26;;;;;;;44.67;17.30;;;6.30;99.90;;;;;;4896891;29;20057;-84
2023/12/19 01:58:02;;;;;;;44.20;17.27;;;7.40;99.90;;;;;;4897238;29;20057;-85
2023/12/19 02:00:28;;;;;;;43.57;18.20;;;5.90;99.90;;;;;;4897479;29;20049;-84
2023/12/19 02:02:54;;;;;;;50.93;18.67;;;5.70;99.90;;;;;;4896545;29;20124;-84
2023/12/19 02:05:38;;;;;;;48.17;17.70;;;5.90;99.90;;;;;;4897508;29;20552;-85
2023/12/19 02:08:04;;;;;;;45.40;18.55;;;7.20;99.90;;;;;;4896828;29;20049;-84
2023/12/19 02:10:36;;;;;;;41.43;17.07;;;5.90;99.90;;;;;;4896715;29;20050;-84
2023/12/19 02:13:02;;;;;;;44.90;17.70;;;5.90;99.90;;;;;;4897134;29;20045;-85
2023/12/19 02:15:28;;;;;;;41.27;16.97;;;6.00;99.90;;;;;;4897033;29;20047;-85
2023/12/19 02:18:47;;;;;;;47.00;18.07;;;6.50;99.90;;;;;;4896509;29;20044;-84
2023/12/19 02:21:22;;;;;;;44.87;17.77;;;6.20;99.90;;;;;;4869510;29;20489;-85
2023/12/19 02:23:47;;;;;;;43.43;17.13;;;6.90;99.90;;;;;;4901268;29;20053;-84
2023/12/19 02:26:13;;;;;;;49.83;19.67;;;6.80;99.90;;;;;;4900323;29;20140;-84
2023/12/19 02:28:45;;;;;;;45.30;17.10;;;5.70;99.90;;;;;;4918845;29;20139;-85
2023/12/19 02:31:10;;;;;;;43.37;17.43;;;5.90;99.90;;;;;;4918098;29;20047;-85
2023/12/19 02:33:54;;;;;;;42.60;17.63;;;7.60;99.90;;;;;;4919109;29;20107;-85
2023/12/19 02:36:20;;;;;;;48.03;17.57;;;5.90;99.90;;;;;;4919178;29;20134;-85
2023/12/19 02:39:03;;;;;;;45.20;17.13;;;6.30;99.90;;;;;;4917730;29;20143;-85
2023/12/19 02:41:30;;;;;;;43.15;17.65;;;6.00;99.90;;;;;;4918600;29;20047;-85
2023/12/19 02:43:55;;;;;;;44.53;17.40;;;7.60;99.90;;;;;;4918013;29;20051;-84
2023/12/19 02:46:23;;;;;;;41.63;16.57;;;6.00;99.90;;;;;;4915507;29;20492;-84
2023/12/19 02:48:48;;;;;;;42.43;17.37;;;5.60;99.90;;;;;;4899884;29;20052;-85
2023/12/19 02:51:14;;;;;;;44.83;16.93;;;5.90;99.90;;;;;;4898992;29;20108;-85
2023/12/19 02:53:39;;;;;;;43.97;17.20;;;6.90;99.90;;;;;;4899742;29;20515;-85
2023/12/19 02:56:05;;;;;;;36.83;14.87;;;5.90;99.90;;;;;;4899274;29;20048;-84
2023/12/19 02:58:31;;;;;;;40.97;16.40;;;5.90;99.90;;;;;;4899158;29;20048;-85
2023/12/19 03:00:56;;;;;;;42.43;17.33;;;6.70;99.90;;;;;;4899671;29;20123;-85
2023/12/19 03:03:22;;;;;;;43.63;17.33;;;7.60;99.90;;;;;;4899388;29;20055;-85
2023/12/19 03:06:06;;;;;;;40.70;15.80;;;6.00;99.90;;;;;;4915462;29;20051;-85
2023/12/19 03:08:31;;;;;;;43.05;15.63;;;6.00;99.90;;;;;;4915358;29;20116;-85
2023/12/19 03:11:13;;;;;;;40.33;15.80;;;6.10;99.90;;;;;;4914884;29;20126;-85
2023/12/19 03:13:39;;;;;;;41.67;15.73;;;6.50;99.90;;;;;;4917261;23;20071;-85
2023/12/19 03:16:14;;;;;;;35.27;14.13;;;7.00;99.90;;;;;;4918021;29;20048;-85
2023/12/19 03:18:39;;;;;;;36.87;14.30;;;5.70;99.90;;;;;;4918218;29;20040;-84
2023/12/19 03:21:08;;;;;;;42.03;14.50;;;5.80;99.90;;;;;;4917275;29;20047;-84
2023/12/19 03:23:34;;;;;;;35.27;14.77;;;5.70;99.90;;;;;;4915388;29;20063;-85
2023/12/19 03:25:59;;;;;;;35.30;12.77;;;6.90;99.90;;;;;;4899045;29;20048;-84
2023/12/19 03:28:40;;;;;;;33.57;13.53;;;7.50;99.90;;;;;;4898590;29;20422;-85
2023/12/19 03:31:05;;;;;;;27.50;11.80;;;6.00;99.90;;;;;;4899197;29;20044;-85
2023/12/19 03:33:40;;;;;;;30.23;11.83;;;5.70;99.90;;;;;;4898376;29;20488;-85
2023/12/19 03:36:06;;;;;;;28.43;11.63;;;6.40;99.90;;;;;;4899080;29;20055;-85
2023/12/19 03:38:37;;;;;;;28.17;12.23;;;7.60;99.90;;;;;;4899583;29;20048;-85
2023/12/19 03:41:05;;;;;;;29.53;12.07;;;5.30;99.90;;;;;;4898234;29;20055;-85
2023/12/19 03:43:30;;;;;;;26.43;10.50;;;6.00;99.90;;;;;;4899280;29;20051;-85
2023/12/19 03:46:12;;;;;;;26.27;11.20;;;5.60;99.90;;;;;;4898843;29;20060;-85
2023/12/19 03:48:45;;;;;;;26.87;10.70;;;6.70;99.90;;;;;;4902296;29;20048;-86
2023/12/19 03:51:12;;;;;;;24.42;11.55;;;5.70;99.90;;;;;;4902632;29;20056;-86
2023/12/19 03:53:40;;;;;;;26.63;11.00;;;6.80;99.90;;;;;;4902843;29;20416;-86
2023/12/19 03:56:24;;;;;;;26.50;11.57;;;5.60;99.90;;;;;;4902266;29;20102;-87
2023/12/19 03:59:10;;;;;;;26.27;11.00;;;5.70;99.90;;;;;;4903033;29;20059;-86
2023/12/19 04:01:56;;;;;;;28.87;11.30;;;6.20;99.90;;;;;;4902241;29;20388;-86
2023/12/19 04:04:37;;;;;;;30.07;11.63;;;5.50;99.90;;;;;;4903180;29;20048;-86
2023/12/19 04:07:15;;;;;;;27.83;11.57;;;5.80;99.90;;;;;;4902186;29;20480;-86
2023/12/19 04:09:50;;;;;;;25.60;10.90;;;6.00;99.90;;;;;;4901884;29;20054;-87
2023/12/19 04:12:31;;;;;;;25.90;11.07;;;5.90;99.90;;;;;;4902392;29;20068;-86
2023/12/19 04:15:15;;;;;;;30.27;11.80;;;5.80;99.90;;;;;;4902183;29;20075;-86
2023/12/19 04:18:00;;;;;;;28.57;12.07;;;6.10;99.90;;;;;;4917718;29;20059;-86
2023/12/19 04:20:32;;;;;;;26.57;11.10;;;7.50;99.90;;;;;;4902474;29;20481;-86
2023/12/19 04:22:58;;;;;;;27.37;11.10;;;6.20;99.90;;;;;;4901171;29;20056;-84
2023/12/19 04:25:24;;;;;;;25.70;11.00;;;6.80;99.90;;;;;;4902448;29;20188;-86
2023/12/19 04:27:50;;;;;;;26.17;10.70;;;7.40;99.90;;;;;;4902059;29;20142;-87
2023/12/19 04:30:33;;;;;;;27.30;11.50;;;7.40;99.90;;;;;;4901445;29;20088;-87
2023/12/19 04:33:14;;;;;;;27.95;10.57;;;6.00;99.90;;;;;;4904753;29;20440;-86
2023/12/19 04:35:55;;;;;;;25.87;10.20;;;7.00;99.90;;;;;;4902378;29;20048;-86
2023/12/19 04:38:31;;;;;;;23.13;9.83;;;6.90;99.90;;;;;;4901752;29;20045;-88
2023/12/19 04:40:57;;;;;;;24.67;10.10;;;6.20;99.90;;;;;;4903247;29;20492;-86
2023/12/19 04:43:24;;;;;;;20.83;9.20;;;5.90;99.90;;;;;;4919412;29;20104;-87
2023/12/19 04:45:59;;;;;;;26.10;9.90;;;7.70;99.90;;;;;;4901583;29;20052;-86
2023/12/19 04:48:31;;;;;;;21.70;9.23;;;6.40;99.90;;;;;;4901905;29;20054;-87
2023/12/19 04:50:58;;;;;;;23.27;9.40;;;5.90;99.90;;;;;;4901462;29;20134;-87
2023/12/19 04:53:33;;;;;;;21.63;9.13;;;5.60;99.90;;;;;;4901862;29;20455;-87
2023/12/19 04:55:59;;;;;;;25.27;10.20;;;5.90;99.90;;;;;;4901650;29;20052;-87
2023/12/19 04:58:38;;;;;;;24.63;9.70;;;6.00;99.90;;;;;;4946005;23;20054;-87
2023/12/19 05:01:04;;;;;;;24.13;9.83;;;6.80;99.90;;;;;;4878277;29;20049;-87
2023/12/19 05:03:30;;;;;;;25.23;10.30;;;5.10;99.90;;;;;;4878728;29;20153;-87
2023/12/19 05:05:55;;;;;;;25.50;9.80;;;6.20;99.90;;;;;;4863548;29;20052;-87
2023/12/19 05:08:21;;;;;;;26.37;10.60;;;5.90;99.90;;;;;;4871250;29;20045;-86
2023/12/19 05:10:53;;;;;;;27.17;10.93;;;6.30;99.90;;;;;;4884921;29;20033;-86
2023/12/19 05:13:18;;;;;;;25.80;9.87;;;6.00;99.90;;;;;;4865140;29;20524;-87
2023/12/19 05:15:44;;;;;;;23.33;9.80;;;6.60;99.90;;;;;;4865656;29;20041;-87
2023/12/19 05:18:09;;;;;;;24.27;9.87;;;6.20;99.90;;;;;;4865203;29;20053;-87
2023/12/19 05:20:35;;;;;;;25.93;9.93;;;7.20;99.90;;;;;;4944807;23;20501;-88
2023/12/19 05:23:13;;;;;;;26.60;10.07;;;7.70;99.90;;;;;;4882425;29;20397;-87
2023/12/19 05:25:40;;;;;;;27.23;10.07;;;6.50;99.90;;;;;;4882042;29;20405;-87
2023/12/19 05:28:16;;;;;;;;;;;;;;;;;;;;;
2023/12/19 05:30:49;;;;;;;24.00;9.87;;;6.30;99.90;;;;;;4882193;29;20466;-87
2023/12/19 05:33:15;;;;;;;40.97;21.80;;;6.20;99.90;;;;;;4882143;29;20108;-88
2023/12/19 05:35:43;;;;;;;27.43;12.23;;;7.80;99.90;;;;;;4882584;29;20490;-87
2023/12/19 05:38:09;;;;;;;27.97;11.23;;;7.10;99.90;;;;;;4882342;29;20120;-87
2023/12/19 05:41:03;;;;;;;32.40;14.00;;;7.70;99.90;;;;;;4881353;29;20049;-87
2023/12/19 05:43:44;;;;;;;28.47;10.80;;;7.50;99.90;;;;;;4882891;29;20092;-87
2023/12/19 05:46:10;;;;;;;21.73;9.70;;;6.40;99.90;;;;;;4882245;29;20047;-87
2023/12/19 05:48:36;;;;;;;25.47;10.03;;;5.30;99.90;;;;;;4881400;29;20083;-87
2023/12/19 05:51:03;;;;;;;26.23;10.13;;;6.20;99.90;;;;;;4882523;29;20056;-86
2023/12/19 05:53:38;;;;;;;25.03;9.70;;;6.30;99.90;;;;;;4881430;29;20056;-87
2023/12/19 05:56:13;;;;;;;24.37;9.60;;;7.50;99.90;;;;;;4881072;29;20048;-87
2023/12/19 05:58:44;;;;;;;20.87;8.50;;;5.60;99.90;;;;;;4882004;29;20564;-87
2023/12/19 06:01:28;;;;;;;24.67;9.57;;;7.90;99.90;;;;;;4881343;29;20080;-87
2023/12/19 06:04:01;;;;;;;22.05;9.20;;;6.50;99.90;;;;;;4882009;29;20184;-87
2023/12/19 06:06:26;;;;;;;21.57;9.17;;;5.40;99.90;;;;;;4884793;29;20127;-87
2023/12/19 06:09:01;;;;;;;20.67;8.27;;;7.10;99.90;;;;;;4880426;29;20188;-87
2023/12/19 06:11:42;;;;;;;21.03;8.30;;;5.80;99.90;;;;;;4880447;29;20141;-87
2023/12/19 06:14:08;;;;;;;19.83;7.20;;;7.80;99.90;;;;;;4884166;29;20052;-87
2023/12/19 06:16:46;;;;;;;24.27;9.27;;;8.20;99.90;;;;;;4880480;29;20049;-87
2023/12/19 06:19:27;;;;;;;21.87;8.03;;;6.30;99.90;;;;;;4883583;29;20070;-87
2023/12/19 06:21:58;;;;;;;19.93;7.90;;;7.20;99.90;;;;;;4899412;29;20112;-87
2023/12/19 06:24:24;;;;;;;19.90;8.13;;;8.40;99.90;;;;;;4899984;29;20058;-88
2023/12/19 06:26:59;;;;;;;18.53;7.37;;;6.40;99.90;;;;;;4899785;29;20127;-87
2023/12/19 06:29:25;;;;;;;16.07;6.90;;;8.10;99.90;;;;;;4899166;29;20104;-87
2023/12/19 06:31:51;;;;;;;19.07;7.80;;;7.40;99.90;;;;;;4915963;29;20080;-88
2023/12/19 06:34:17;;;;;;;18.43;7.73;;;6.50;99.90;;;;;;4900155;29;20091;-87
2023/12/19 06:36:45;;;;;;;17.07;7.63;;;6.00;99.90;;;;;;4899150;29;20056;-87
2023/12/19 06:39:11;;;;;;;24.50;11.57;;;8.10;99.90;;;;;;4899652;29;20044;-87
2023/12/19 06:41:50;;;;;;;17.03;6.60;;;6.40;99.90;;;;;;4900429;29;20561;-87
2023/12/19 06:45:04;;;;;;;17.43;7.20;;;6.10;99.90;;;;;;4900526;29;20044;-87
2023/12/19 06:47:30;;;;;;;17.03;6.57;;;7.10;99.90;;;;;;4843135;29;20049;-86
2023/12/19 06:50:13;;;;;;;29.53;17.57;;;6.00;99.90;;;;;;4893635;29;20056;-87
2023/12/19 06:52:38;;;;;;;18.53;7.97;;;6.00;99.90;;;;;;4892325;29;20179;-87
2023/12/19 06:55:10;;;;;;;44.27;29.73;;;6.10;99.90;;;;;;4880799;29;20040;-87
2023/12/19 06:57:36;;;;;;;14.67;7.37;;;8.10;99.90;;;;;;4899566;29;20081;-87
2023/12/19 07:03:25;;;;;;;12.77;4.47;;;6.40;99.90;;;;;;4917486;29;20047;-87
2023/12/19 07:05:53;;;;;;;14.93;5.43;;;5.70;99.90;;;;;;4899273;29;20072;-89
2023/12/19 07:08:20;;;;;;;13.50;5.00;;;6.60;99.90;;;;;;4899578;29;20591;-87
2023/12/19 07:10:45;;;;;;;12.00;4.53;;;7.60;99.90;;;;;;4900182;29;20078;-86
2023/12/19 07:13:11;;;;;;;14.40;5.30;;;7.40;99.90;;;;;;4898410;29;20087;-86
2023/12/19 07:15:43;;;;;;;12.30;5.20;;;6.50;99.90;;;;;;4899527;29;20066;-86
2023/12/19 07:20:54;;;;;;;15.60;5.20;;;6.40;99.90;;;;;;4895469;29;20104;-88
2023/12/19 07:23:20;;;;;;;12.83;4.90;;;6.40;99.90;;;;;;4895761;29;20390;-87
2023/12/19 07:25:56;;;;;;;13.53;5.17;;;6.30;99.90;;;;;;4895866;29;20036;-87
2023/12/19 07:28:22;;;;;;;12.50;4.30;;;6.20;99.90;;;;;;4896486;29;20049;-86
2023/12/19 07:30:47;;;;;;;12.77;5.20;;;7.70;99.90;;;;;;4896644;29;20049;-87
2023/12/19 07:33:13;;;;;;;12.70;4.57;;;5.30;99.90;;;;;;4895761;29;20079;-87
2023/12/19 07:35:41;;;;;;;14.40;5.23;;;6.60;99.90;;;;;;4895379;29;20053;-87
2023/12/19 07:38:06;;;;;;;16.37;6.87;;;7.20;99.90;;;;;;5115844;23;20080;-87
2023/12/19 07:40:32;;;;;;;13.17;4.40;;;8.00;99.90;;;;;;4871780;29;20252;-86
2023/12/19 07:42:58;;;;;;;11.93;4.47;;;6.30;99.90;;;;;;4862061;29;20077;-84
2023/12/19 07:45:23;;;;;;;10.77;4.13;;;6.30;99.90;;;;;;4861584;29;20048;-87
2023/12/19 07:47:49;;;;;;;11.70;3.90;;;6.50;99.90;;;;;;4862700;29;20115;-87
2023/12/19 07:50:15;;;;;;;13.03;4.20;;;6.90;99.90;;;;;;4861878;29;20052;-86
2023/12/19 07:52:46;;;;;;;10.60;4.13;;;6.60;99.90;;;;;;4864114;29;20041;-87
2023/12/19 07:55:15;;;;;;;11.80;4.43;;;5.70;99.90;;;;;;4861358;29;20053;-84
2023/12/19 07:57:41;;;;;;;11.97;3.70;;;6.60;99.90;;;;;;4862182;29;20086;-86
2023/12/19 08:00:09;;;;;;;10.70;4.07;;;6.20;99.90;;;;;;4861865;29;20045;-84
2023/12/19 08:02:35;;;;;;;11.67;4.07;;;6.60;99.90;;;;;;4861551;29;20063;-85
2023/12/19 08:05:01;;;;;;;9.70;3.67;;;6.60;99.90;;;;;;4861503;29;20049;-85
2023/12/19 08:07:27;;;;;;;10.20;3.90;;;6.60;99.90;;;;;;4861070;29;20053;-85
2023/12/19 08:09:53;;;;;;;9.90;3.30;;;6.60;99.90;;;;;;4862295;29;20049;-86
2023/12/19 08:12:18;;;;;;;10.90;4.17;;;6.70;99.90;;;;;;4885534;29;20044;-86
2023/12/19 08:15:12;;;;;;;10.80;4.00;;;6.60;99.90;;;;;;4882919;29;20060;-89
2023/12/19 08:17:44;;;;;;;11.70;4.00;;;5.90;99.90;;;;;;4863605;29;20060;-88
2023/12/19 08:20:15;;;;;;;11.60;3.83;;;7.50;99.90;;;;;;4867996;29;20402;-86
2023/12/19 08:22:56;;;;;;;10.87;4.17;;;6.70;99.90;;;;;;4875337;29;20053;-87
2023/12/19 08:29:04;;;;;;;11.43;4.30;;;6.20;99.90;;;;;;5138630;23;20067;-93
2023/12/19 08:31:29;;;;;;;13.57;4.30;;;7.60;99.90;;;;;;4911856;23;20048;-84
2023/12/19 08:33:55;;;;;;;10.97;3.80;;;7.50;99.90;;;;;;4882326;29;20554;-86
2023/12/19 08:36:32;;;;;;;11.33;4.03;;;6.50;99.90;;;;;;4882654;29;20073;-87
2023/12/19 08:39:02;;;;;;;10.77;4.37;;;8.60;99.90;;;;;;4883984;29;20080;-87
2023/12/19 08:41:28;;;;;;;12.17;5.00;;;6.80;99.90;;;;;;4902150;29;20481;-86
2023/12/19 08:44:07;;;;;;;11.00;4.07;;;8.20;99.90;;;;;;4901421;29;20111;-88
2023/12/19 08:46:45;;;;;;;15.17;6.80;;;8.40;99.90;;;;;;4902149;29;20523;-87
2023/12/19 08:49:29;;;;;;;16.17;6.97;;;8.70;99.90;;;;;;4903024;29;20059;-86
2023/12/19 08:52:08;;;;;;;15.60;7.07;;;;;;;;;;4898412;29;20041;-87
2023/12/19 08:54:43;;;;;;;16.00;7.53;;;7.00;99.90;;;;;;4912602;29;20477;-84
2023/12/19 09:01:13;;;;;;;18.37;7.70;;;7.90;99.90;;;;;;4919044;29;20104;-87
2023/12/19 09:03:54;;;;;;;16.70;6.87;;;8.10;99.90;;;;;;4901242;29;20063;-86
2023/12/19 09:06:26;;;;;;;30.77;23.77;;;7.30;99.90;;;;;;4918304;29;20071;-86
2023/12/19 09:09:29;;;;;;;17.77;8.03;;;6.10;99.90;;;;;;4901428;29;20048;-86
2023/12/19 09:12:09;;;;;;;17.80;8.03;;;7.00;99.90;;;;;;4900771;29;20055;-86
2023/12/19 09:14:39;;;;;;;25.47;16.67;;;7.70;99.90;;;;;;4904300;29;20052;-85
2023/12/19 09:17:04;;;;;;;24.43;14.70;;;9.10;99.90;;;;;;4901610;29;20044;-84
2023/12/19 09:19:42;;;;;;;16.00;7.17;;;6.00;99.90;;;;;;4917862;29;20048;-85
2023/12/19 09:22:08;;;;;;;23.30;14.87;;;8.70;99.90;;;;;;4903219;29;20083;-85
2023/12/19 09:24:34;;;;;;;20.67;10.53;;;8.40;99.90;;;;;;4901871;29;20082;-85
2023/12/19 09:27:11;;;;;;;23.63;13.43;;;7.20;99.90;;;;;;4917557;29;20044;-85
2023/12/19 09:29:37;;;;;;;19.63;8.63;;;8.60;99.90;;;;;;4901879;29;20051;-86
2023/12/19 09:32:05;;;;;;;20.80;9.47;;;7.20;99.90;;;;;;4896651;29;20056;-85
2023/12/19 09:34:56;;;;;;;19.33;8.50;;;7.40;99.90;;;;;;4898934;29;20089;-85
2023/12/19 09:39:56;;;;;;;20.57;10.30;;;7.40;99.90;;;;;;4969136;23;20056;-86
2023/12/19 09:42:21;;;;;;;24.97;13.53;;;8.70;99.90;;;;;;4886275;29;20051;-86
2023/12/19 09:45:03;;;;;;;17.07;7.50;;;8.60;99.90;;;;;;4900500;29;20051;-86
2023/12/19 09:48:00;;;;;;;20.80;11.00;;;7.40;99.90;;;;;;4900570;29;20048;-86
2023/12/19 09:50:29;;;;;;;17.70;8.40;;;6.90;99.90;;;;;;4949475;23;20135;-86
2023/12/19 09:53:11;;;;;;;23.20;12.67;;;8.80;99.90;;;;;;4881515;29;20395;-86
2023/12/19 09:55:46;;;;;;;29.43;17.33;;;7.60;99.90;;;;;;4881960;29;20048;-86
2023/12/19 09:58:12;;;;;;;19.20;8.57;;;6.60;99.90;;;;;;4882676;29;20063;-86
2023/12/19 10:01:36;;;;;;;23.33;12.60;;;7.60;99.90;;;;;;5066114;23;20056;-86
2023/12/19 10:04:27;;;;;;;19.53;8.40;;;7.80;99.90;;;;;;4881127;29;20059;-86
2023/12/19 10:06:58;;;;;;;20.43;8.40;;;8.10;99.90;;;;;;4882367;29;20142;-85
2023/12/19 10:09:26;;;;;;;19.33;8.40;;;7.60;99.90;;;;;;4871274;29;20065;-87
2023/12/19 10:12:12;;;;;;;21.53;8.93;;;8.80;99.90;;;;;;4883146;29;20084;-87
2023/12/19 10:15:30;;;;;;;21.60;9.10;;;7.60;99.90;;;;;;4882163;29;20053;-86
2023/12/19 10:18:12;;;;;;;23.07;9.13;;;7.10;99.90;;;;;;4881893;29;20071;-86
2023/12/19 10:20:38;;;;;;;19.53;8.93;;;9.10;99.90;;;;;;4898193;29;20049;-86
2023/12/19 10:23:20;;;;;;;19.23;8.63;;;7.50;99.90;;;;;;4879892;29;20044;-85
2023/12/19 10:25:58;;;;;;;20.47;9.07;;;7.90;99.90;;;;;;4881235;29;20413;-85
2023/12/19 10:28:44;;;;;;;22.80;10.50;;;8.90;99.90;;;;;;4880905;29;20111;-86
2023/12/19 10:31:29;;;;;;;23.67;9.60;;;7.10;99.90;;;;;;4881222;29;20049;-86
2023/12/19 10:34:04;;;;;;;21.57;9.33;;;9.30;99.90;;;;;;4881576;29;20063;-85
2023/12/19 10:36:31;;;;;;;17.73;8.70;;;9.30;99.90;;;;;;4880514;29;20052;-85
2023/12/19 10:39:05;;;;;;;19.37;9.50;;;8.40;99.90;;;;;;4880948;29;20450;-85
2023/12/19 10:41:32;;;;;;;;;;;8.20;99.90;;;;;;4881476;29;20068;-84
2023/12/19 10:43:59;;;;;;;21.40;9.97;;;9.20;99.90;;;;;;4879255;29;19931;-83
2023/12/19 10:49:37;;;;;;;22.07;9.80;;;9.10;99.90;;;;;;4985970;23;20057;-84
2023/12/19 10:52:12;;;;;;;22.35;9.50;;;7.90;99.90;;;;;;4862347;29;20057;-84
2023/12/19 10:54:59;;;;;;;24.43;9.63;;;9.40;99.90;;;;;;4868316;29;20399;-84
2023/12/19 10:57:36;;;;;;;21.10;9.00;;;9.20;99.90;;;;;;4900032;29;20083;-84
2023/12/19 11:00:31;;;;;;;22.40;9.33;;;8.10;99.90;;;;;;4899326;29;20076;-85
2023/12/19 11:03:24;;;;;;;22.03;9.43;;;7.90;99.90;;;;;;4890315;29;20044;-85
2023/12/19 11:06:07;;;;;;;23.03;10.40;;;8.00;99.90;;;;;;4881372;29;20095;-85
2023/12/19 11:08:40;;;;;;;23.47;9.97;;;8.00;99.90;;;;;;4879439;29;20048;-86
2023/12/19 11:14:32;;;;;;;21.73;9.40;;;7.90;99.90;;;;;;4875151;29;20033;-83
2023/12/19 11:17:41;;;;;;;20.37;9.10;;;9.30;99.90;;;;;;4883555;29;20060;-84
2023/12/19 11:20:29;;;;;;;20.60;9.80;;;8.00;99.90;;;;;;4878808;23;20112;-85
2023/12/19 11:23:24;;;;;;;22.20;9.40;;;8.00;99.90;;;;;;4853189;29;20059;-85
2023/12/19 11:26:27;;;;;;;20.60;9.30;;;8.50;99.90;;;;;;4861308;29;20056;-84
2023/12/19 11:29:02;;;;;;;19.47;8.90;;;9.00;99.90;;;;;;4861514;29;20048;-85
2023/12/19 11:31:32;;;;;;;22.80;9.97;;;7.00;99.90;;;;;;4860913;29;20112;-84
2023/12/19 11:34:23;;;;;;;21.00;9.17;;;8.00;99.90;;;;;;4861882;29;20056;-85
2023/12/19 11:37:02;;;;;;;22.53;10.67;;;8.00;99.90;;;;;;4862198;29;20047;-85
2023/12/19 11:39:40;;;;;;;19.77;8.17;;;8.00;99.90;;;;;;4860754;29;20059;-84
2023/12/19 11:42:49;;;;;;;18.73;9.40;;;8.00;99.90;;;;;;4861813;29;20379;-88
2023/12/19 11:45:18;;;;;;;19.10;9.27;;;8.10;99.90;;;;;;4876782;29;20052;-83
2023/12/19 11:47:45;;;;;;;22.83;9.13;;;8.00;99.90;;;;;;4861032;29;20053;-84
2023/12/19 11:50:38;;;;;;;18.70;9.10;;;9.20;99.90;;;;;;4877438;29;20053;-83
2023/12/19 11:53:04;;;;;;;20.75;9.00;;;8.10;99.90;;;;;;4861204;29;20572;-85
2023/12/19 11:55:33;;;;;;;16.97;8.83;;;8.20;99.90;;;;;;4861665;29;20128;-87
2023/12/19 11:58:08;;;;;;;18.90;9.30;;;8.00;99.90;;;;;;4861437;29;20041;-86
2023/12/19 12:00:57;;;;;;;18.93;10.00;;;7.60;99.90;;;;;;4861526;29;20049;-86
2023/12/19 12:03:33;;;;;;;18.37;9.07;;;8.00;99.90;;;;;;4862211;29;20052;-85
2023/12/19 12:06:11;;;;;;;19.77;9.67;;;9.60;99.90;;;;;;4861296;29;20076;-86
2023/12/19 12:08:53;;;;;;;20.23;10.50;;;8.70;99.90;;;;;;4862742;29;20064;-86
2023/12/19 12:15:14;;;;;;;20.77;10.13;;;7.90;99.90;;;;;;4830424;29;20057;-86
2023/12/19 12:20:48;;;;;;;19.67;10.02;;;8.10;99.90;;;;;;5054431;23;20511;-86
2023/12/19 12:23:19;;;;;;;20.43;10.60;;;7.80;99.90;;;;;;4919177;29;20052;-87
2023/12/19 12:26:10;;;;;;;19.27;9.27;;;7.30;99.90;;;;;;4902539;29;20056;-87
2023/12/19 12:28:40;;;;;;;19.33;9.17;;;7.70;99.90;;;;;;4894541;23;20450;-88
2023/12/19 12:34:12;;;;;;;27.53;15.63;;;8.20;99.90;;;;;;4896687;23;20056;-87
2023/12/19 12:36:38;;;;;;;21.73;11.53;;;8.20;99.90;;;;;;4873672;29;20135;-87
2023/12/19 12:39:04;;;;;;;20.50;10.00;;;10.30;99.90;;;;;;4872992;29;20045;-87
2023/12/19 12:41:33;;;;;;;20.10;10.40;;;7.90;99.90;;;;;;4874627;29;20045;-87
2023/12/19 12:43:59;;;;;;;19.23;8.90;;;8.20;99.90;;;;;;4873877;29;20045;-86
2023/12/19 12:46:31;;;;;;;21.20;10.20;;;8.80;99.90;;;;;;4872573;29;20519;-87
2023/12/19 12:48:57;;;;;;;19.87;9.60;;;8.00;99.90;;;;;;4872090;29;20417;-88
2023/12/19 12:51:26;;;;;;;19.92;9.88;;;7.00;99.90;;;;;;4873363;29;20045;-87
2023/12/19 12:54:33;;;;;;;21.30;10.43;;;8.80;99.90;;;;;;4878194;29;20131;-88
2023/12/19 12:57:14;;;;;;;21.43;10.20;;;8.30;99.90;;;;;;4882336;29;20056;-87
2023/12/19 12:59:40;;;;;;;20.27;9.67;;;8.30;99.90;;;;;;4883855;29;20048;-88
2023/12/19 13:02:21;;;;;;;21.67;11.03;;;7.90;99.90;;;;;;4881117;29;20049;-88
2023/12/19 13:04:49;;;;;;;21.33;10.60;;;8.00;99.90;;;;;;4882121;29;20045;-87
2023/12/19 13:07:17;;;;;;;19.87;9.70;;;9.30;99.90;;;;;;4882728;29;20072;-88
2023/12/19 13:10:03;;;;;;;21.73;10.80;;;7.80;99.90;;;;;;4900732;23;20031;-87
2023/12/19 13:12:29;;;;;;;22.17;10.70;;;8.30;99.90;;;;;;4885675;29;20084;-87
2023/12/19 13:14:54;;;;;;;21.23;9.53;;;8.70;99.90;;;;;;4901567;29;20064;-88
2023/12/19 13:17:26;;;;;;;20.43;10.13;;;9.60;99.90;;;;;;4903012;23;20049;-88
2023/12/19 13:20:11;;;;;;;19.17;9.40;;;7.70;99.90;;;;;;4878438;29;20057;-88
2023/12/19 13:22:36;;;;;;;21.85;9.70;;;8.40;99.90;;;;;;4897955;29;20175;-87
2023/12/19 13:25:11;;;;;;;20.75;10.20;;;9.90;99.90;;;;;;4881832;29;20087;-88
2023/12/19 13:31:22;;;;;;;20.10;9.70;;;7.70;99.90;;;;;;4924130;23;20614;-87
2023/12/19 13:34:04;;;;;;;19.00;9.23;;;9.10;99.90;;;;;;4901276;29;20397;-87
2023/12/19 13:36:30;;;;;;;18.07;8.97;;;9.40;99.90;;;;;;4901060;29;20051;-87
2023/12/19 13:41:58;;;;;;;18.57;8.77;;;8.20;99.90;;;;;;4933035;23;20060;-87
2023/12/19 13:54:54;;;;;;;17.60;8.27;;;8.30;99.90;;;;;;5721293;23;20058;-90
2023/12/19 14:05:16;;;;;;;15.80;7.43;;;7.90;99.90;;;;;;4920523;29;20103;-87
2023/12/19 14:12:18;;;;;;;15.23;7.28;;;8.10;99.90;;;;;;4917337;29;20141;-86
2023/12/19 14:14:56;;;;;;;15.83;7.03;;;8.40;99.90;;;;;;4900205;29;20052;-87